createdAt,value
2019-05-21T00:00:51.704Z,99854.00
2019-05-21T00:03:22.206Z,99854.00
2019-05-21T00:05:52.887Z,99846.00
2019-05-21T00:08:23.239Z,99846.00
2019-05-21T00:10:54.135Z,99842.00
2019-05-21T00:13:24.813Z,99841.00
2019-05-21T00:15:57.548Z,99846.00
2019-05-21T00:18:27.896Z,99835.00
2019-05-21T00:20:58.566Z,99839.00
2019-05-21T00:23:29.233Z,99843.00
2019-05-21T00:25:59.966Z,99841.00
2019-05-21T00:28:40.004Z,99841.00
2019-05-21T00:32:04.540Z,99847.00
2019-05-21T00:35:30.401Z,99843.00
2019-05-21T00:38:54.856Z,99836.00
2019-05-21T00:42:00.419Z,99835.00
2019-05-21T00:44:34.208Z,99841.00
2019-05-21T00:47:05.981Z,99836.00
2019-05-21T00:49:36.389Z,99832.00
2019-05-21T00:52:09.034Z,99834.00
2019-05-21T00:54:49.627Z,99827.00
2019-05-21T00:57:19.999Z,99824.00
2019-05-21T00:59:50.367Z,99823.00
2019-05-21T01:02:20.764Z,99813.00
2019-05-21T01:05:00.372Z,99797.00
2019-05-21T01:07:25.504Z,99808.00
2019-05-21T01:09:56.018Z,99811.00
2019-05-21T01:12:26.551Z,99822.00
2019-05-21T01:14:57.093Z,99820.00
2019-05-21T01:17:28.298Z,99826.00
2019-05-21T01:19:58.766Z,99823.00
2019-05-21T01:22:29.374Z,99836.00
2019-05-21T01:24:59.876Z,99834.00
2019-05-21T01:27:30.303Z,99848.00
2019-05-21T01:30:01.150Z,99846.00
2019-05-21T01:32:31.668Z,99853.00
2019-05-21T01:35:16.058Z,99866.00
2019-05-21T01:37:35.027Z,99838.00
2019-05-21T01:40:06.005Z,99870.00
2019-05-21T01:42:37.680Z,99862.00
2019-05-21T01:45:08.511Z,99869.00
2019-05-21T01:47:39.017Z,99860.00
2019-05-21T01:50:09.674Z,99877.00
2019-05-21T01:52:40.244Z,99874.00
2019-05-21T01:55:11.162Z,99866.00
2019-05-21T01:57:41.669Z,99879.00
2019-05-21T02:00:12.856Z,99873.00
2019-05-21T02:02:43.779Z,99875.00
2019-05-21T02:05:14.285Z,99875.00
2019-05-21T02:07:44.707Z,99880.00
2019-05-21T02:10:15.603Z,99877.00
2019-05-21T02:12:46.245Z,99888.00
2019-05-21T02:15:16.809Z,99887.00
2019-05-21T02:17:47.207Z,99879.00
2019-05-21T02:20:17.857Z,99884.00
2019-05-21T02:22:48.260Z,99887.00
2019-05-21T02:25:19.331Z,99876.00
2019-05-21T02:27:49.812Z,99881.00
2019-05-21T02:30:26.246Z,99889.00
2019-05-21T02:32:56.634Z,99891.00
2019-05-21T02:35:27.357Z,99895.00
2019-05-21T02:37:58.424Z,99895.00
2019-05-21T02:40:29.108Z,99893.00
2019-05-21T02:42:59.481Z,99888.00
2019-05-21T02:45:29.834Z,99887.00
2019-05-21T02:48:00.207Z,99884.00
2019-05-21T02:50:30.857Z,99891.00
2019-05-21T02:53:01.342Z,99892.00
2019-05-21T02:55:32.739Z,99893.00
2019-05-21T02:58:03.066Z,99901.00
2019-05-21T03:00:56.219Z,99893.00
2019-05-21T03:03:28.679Z,99902.00
2019-05-21T03:06:13.014Z,99894.00
2019-05-21T03:08:31.142Z,99892.00
2019-05-21T03:11:01.552Z,99901.00
2019-05-21T03:13:31.923Z,99893.00
2019-05-21T03:16:02.656Z,99900.00
2019-05-21T03:18:33.036Z,99904.00
2019-05-21T03:21:03.496Z,99895.00
2019-05-21T03:23:34.236Z,99904.00
2019-05-21T03:26:05.669Z,99895.00
2019-05-21T03:28:36.082Z,99898.00
2019-05-21T03:31:06.560Z,99904.00
2019-05-21T03:33:37.577Z,99908.00
2019-05-21T03:36:08.024Z,99920.00
2019-05-21T03:38:38.415Z,99919.00
2019-05-21T03:41:08.797Z,99922.00
2019-05-21T03:43:39.251Z,99924.00
2019-05-21T03:46:09.636Z,99928.00
2019-05-21T03:48:40.318Z,99939.00
2019-05-21T03:51:10.984Z,99945.00
2019-05-21T03:53:41.635Z,99941.00
2019-05-21T03:56:12.057Z,99951.00
2019-05-21T03:58:42.757Z,99951.00
2019-05-21T04:01:13.196Z,99954.00
2019-05-21T04:03:43.643Z,99941.00
2019-05-21T04:06:15.071Z,99948.00
2019-05-21T04:08:45.905Z,99938.00
2019-05-21T04:11:16.248Z,99933.00
2019-05-21T04:13:47.317Z,99934.00
2019-05-21T04:16:29.746Z,99934.00
2019-05-21T04:19:07.051Z,99937.00
2019-05-21T04:21:37.431Z,99938.00
2019-05-21T04:24:08.993Z,99936.00
2019-05-21T04:26:40.049Z,99936.00
2019-05-21T04:29:10.373Z,99941.00
2019-05-21T04:31:40.742Z,99937.00
2019-05-21T04:34:12.097Z,99942.00
2019-05-21T04:36:42.556Z,99941.00
2019-05-21T04:39:12.962Z,99939.00
2019-05-21T04:41:43.359Z,99945.00
2019-05-21T04:44:13.875Z,99951.00
2019-05-21T04:46:45.760Z,99954.00
2019-05-21T04:49:16.102Z,99950.00
2019-05-21T04:51:46.551Z,99948.00
2019-05-21T04:54:16.967Z,99959.00
2019-05-21T04:56:47.704Z,99968.00
2019-05-21T04:59:18.105Z,99976.00
2019-05-21T05:01:48.521Z,99981.00
2019-05-21T05:04:21.648Z,99967.00
2019-05-21T05:06:52.085Z,99977.00
2019-05-21T05:09:22.571Z,99973.00
2019-05-21T05:11:53.286Z,99971.00
2019-05-21T05:14:23.631Z,99965.00
2019-05-21T05:16:54.616Z,99963.00
2019-05-21T05:19:26.055Z,99967.00
2019-05-21T05:21:57.555Z,99965.00
2019-05-21T05:24:28.102Z,99950.00
2019-05-21T05:26:58.843Z,99964.00
2019-05-21T05:29:29.269Z,99973.00
2019-05-21T05:32:00.013Z,99975.00
2019-05-21T05:34:33.766Z,99977.00
2019-05-21T05:37:04.669Z,99984.00
2019-05-21T05:39:35.147Z,99987.00
2019-05-21T05:42:06.037Z,99989.00
2019-05-21T05:44:36.831Z,99981.00
2019-05-21T05:47:07.532Z,99964.00
2019-05-21T05:49:42.518Z,99979.00
2019-05-21T05:52:12.960Z,99973.00
2019-05-21T05:54:43.374Z,99974.00
2019-05-21T05:57:13.762Z,99983.00
2019-05-21T05:59:44.199Z,99992.00
2019-05-21T06:02:14.808Z,99986.00
2019-05-21T06:04:45.500Z,99991.00
2019-05-21T06:07:15.912Z,99988.00
2019-05-21T06:09:46.665Z,99996.00
2019-05-21T06:12:17.089Z,99998.00
2019-05-21T06:14:47.718Z,100011.00
2019-05-21T06:17:18.131Z,100005.00
2019-05-21T06:19:48.534Z,100008.00
2019-05-21T06:22:18.993Z,100009.00
2019-05-21T06:24:50.688Z,100009.00
2019-05-21T06:27:21.794Z,100005.00
2019-05-21T06:29:52.324Z,100014.00
2019-05-21T06:32:23.319Z,100014.00
2019-05-21T06:34:53.830Z,100021.00
2019-05-21T06:37:25.013Z,100018.00
2019-05-21T06:39:55.503Z,100024.00
2019-05-21T06:42:26.656Z,100024.00
2019-05-21T06:45:07.451Z,100026.00
2019-05-21T06:47:37.954Z,100028.00
2019-05-21T06:50:09.189Z,100020.00
2019-05-21T06:52:40.230Z,100011.00
2019-05-21T06:55:10.793Z,100012.00
2019-05-21T06:57:41.269Z,100024.00
2019-05-21T07:00:14.170Z,100012.00
2019-05-21T07:02:44.952Z,100015.00
2019-05-21T07:05:16.012Z,100017.00
2019-05-21T07:07:46.448Z,100015.00
2019-05-21T07:10:17.033Z,100021.00
2019-05-21T07:12:47.486Z,100026.00
2019-05-21T07:15:18.014Z,100030.00
2019-05-21T07:17:48.534Z,100041.00
2019-05-21T07:20:19.873Z,100041.00
2019-05-21T07:22:50.940Z,100042.00
2019-05-21T07:25:21.559Z,100047.00
2019-05-21T07:27:52.301Z,100055.00
2019-05-21T07:30:22.739Z,100050.00
2019-05-21T07:32:53.237Z,100058.00
2019-05-21T07:35:23.735Z,100062.00
2019-05-21T07:37:54.375Z,100068.00
2019-05-21T07:40:24.703Z,100069.00
2019-05-21T07:42:55.111Z,100056.00
2019-05-21T07:45:25.488Z,100062.00
2019-05-21T07:47:55.802Z,100067.00
2019-05-21T07:50:26.174Z,100068.00
2019-05-21T07:52:56.534Z,100058.00
2019-05-21T07:55:27.204Z,100075.00
2019-05-21T07:57:57.811Z,100067.00
2019-05-21T08:00:28.244Z,100074.00
2019-05-21T08:02:58.688Z,100065.00
2019-05-21T08:05:29.032Z,100063.00
2019-05-21T08:08:01.760Z,100077.00
2019-05-21T08:10:32.702Z,100092.00
2019-05-21T08:13:03.061Z,100088.00
2019-05-21T08:15:33.403Z,100094.00
2019-05-21T08:18:03.775Z,100089.00
2019-05-21T08:20:34.136Z,100099.00
2019-05-21T08:23:04.570Z,100095.00
2019-05-21T08:25:35.259Z,100099.00
2019-05-21T08:28:05.668Z,100090.00
2019-05-21T08:30:36.011Z,100097.00
2019-05-21T08:33:06.444Z,100105.00
2019-05-21T08:35:55.894Z,100107.00
2019-05-21T08:38:26.221Z,100107.00
2019-05-21T08:40:56.710Z,100108.00
2019-05-21T08:43:27.081Z,100104.00
2019-05-21T08:45:57.591Z,100104.00
2019-05-21T08:48:28.247Z,100109.00
2019-05-21T08:50:58.959Z,100115.00
2019-05-21T08:53:29.305Z,100104.00
2019-05-21T08:55:59.678Z,100107.00
2019-05-21T08:58:30.035Z,100099.00
2019-05-21T09:01:00.540Z,100096.00
2019-05-21T09:03:30.913Z,100106.00
2019-05-21T09:06:01.255Z,100103.00
2019-05-21T09:08:31.588Z,100100.00
2019-05-21T09:11:01.985Z,100103.00
2019-05-21T09:13:32.968Z,100110.00
2019-05-21T09:16:03.326Z,100113.00
2019-05-21T09:18:33.721Z,100118.00
2019-05-21T09:21:04.088Z,100127.00
2019-05-21T09:23:34.550Z,100133.00
2019-05-21T09:26:04.856Z,100124.00
2019-05-21T09:28:35.286Z,100131.00
2019-05-21T09:31:07.061Z,100123.00
2019-05-21T09:33:37.476Z,100137.00
2019-05-21T09:36:07.864Z,100135.00
2019-05-21T09:38:38.524Z,100151.00
2019-05-21T09:41:08.879Z,100147.00
2019-05-21T09:43:39.982Z,100152.00
2019-05-21T09:46:10.721Z,100149.00
2019-05-21T09:48:41.173Z,100158.00
2019-05-21T09:51:19.516Z,100157.00
2019-05-21T09:53:43.973Z,100164.00
2019-05-21T09:56:33.292Z,100169.00
2019-05-21T09:59:23.599Z,100170.00
2019-05-21T10:01:56.808Z,100190.00
2019-05-21T10:04:27.176Z,100192.00
2019-05-21T10:06:57.969Z,100190.00
2019-05-21T10:09:28.454Z,100189.00
2019-05-21T10:11:58.905Z,100205.00
2019-05-21T10:14:29.381Z,100195.00
2019-05-21T10:16:59.758Z,100208.00
2019-05-21T10:19:30.181Z,100208.00
2019-05-21T10:22:00.575Z,100213.00
2019-05-21T10:24:31.277Z,100220.00
2019-05-21T10:27:03.514Z,100230.00
2019-05-21T10:29:34.188Z,100229.00
2019-05-21T10:32:04.708Z,100238.00
2019-05-21T10:34:35.127Z,100235.00
2019-05-21T10:37:05.670Z,100240.00
2019-05-21T10:39:36.050Z,100241.00
2019-05-21T10:42:06.557Z,100250.00
2019-05-21T10:44:37.466Z,100246.00
2019-05-21T10:47:08.366Z,100256.00
2019-05-21T10:49:39.099Z,100258.00
2019-05-21T10:52:09.567Z,100256.00
2019-05-21T10:54:40.323Z,100255.00
2019-05-21T10:57:10.727Z,100255.00
2019-05-21T10:59:41.109Z,100264.00
2019-05-21T11:02:30.763Z,100255.00
2019-05-21T11:05:11.902Z,100264.00
2019-05-21T11:07:43.056Z,100274.00
2019-05-21T11:10:14.546Z,100279.00
2019-05-21T11:12:45.074Z,100278.00
2019-05-21T11:15:15.865Z,100287.00
2019-05-21T11:18:07.145Z,100284.00
2019-05-21T11:20:19.667Z,100285.00
2019-05-21T11:22:50.059Z,100292.00
2019-05-21T11:25:20.813Z,100290.00
2019-05-21T11:27:51.417Z,100297.00
2019-05-21T11:30:22.203Z,100287.00
2019-05-21T11:32:52.552Z,100296.00
2019-05-21T11:35:23.364Z,100303.00
2019-05-21T11:37:53.823Z,100306.00
2019-05-21T11:40:26.104Z,100304.00
2019-05-21T11:42:56.475Z,100311.00
2019-05-21T11:45:32.285Z,100316.00
2019-05-21T11:47:59.338Z,100316.00
2019-05-21T11:50:29.650Z,100321.00
2019-05-21T11:53:00.001Z,100316.00
2019-05-21T11:55:30.393Z,100316.00
2019-05-21T11:58:00.778Z,100323.00
2019-05-21T12:00:32.265Z,100318.00
2019-05-21T12:03:02.673Z,100335.00
2019-05-21T12:05:33.096Z,100335.00
2019-05-21T12:08:03.484Z,100340.00
2019-05-21T12:10:33.893Z,100342.00
2019-05-21T12:13:04.212Z,100338.00
2019-05-21T12:15:34.928Z,100342.00
2019-05-21T12:18:05.620Z,100346.00
2019-05-21T12:20:37.490Z,100342.00
2019-05-21T12:23:08.315Z,100342.00
2019-05-21T12:25:38.672Z,100344.00
2019-05-21T12:28:11.348Z,100341.00
2019-05-21T12:30:41.454Z,100338.00
2019-05-21T12:33:11.981Z,100349.00
2019-05-21T12:35:42.606Z,100352.00
2019-05-21T12:38:12.976Z,100349.00
2019-05-21T12:40:43.873Z,100346.00
2019-05-21T12:43:14.636Z,100337.00
2019-05-21T12:45:45.109Z,100346.00
2019-05-21T12:48:15.717Z,100347.00
2019-05-21T12:50:46.543Z,100355.00
2019-05-21T12:53:17.032Z,100355.00
2019-05-21T12:55:47.790Z,100351.00
2019-05-21T12:58:18.203Z,100356.00
2019-05-21T13:00:48.586Z,100356.00
2019-05-21T13:03:18.959Z,100359.00
2019-05-21T13:05:49.345Z,100358.00
2019-05-21T13:08:19.994Z,100354.00
2019-05-21T13:10:50.411Z,100351.00
2019-05-21T13:13:20.799Z,100354.00
2019-05-21T13:15:51.192Z,100358.00
2019-05-21T13:18:21.661Z,100365.00
2019-05-21T13:20:53.073Z,100367.00
2019-05-21T13:23:23.679Z,100371.00
2019-05-21T13:25:55.198Z,100369.00
2019-05-21T13:28:25.870Z,100381.00
2019-05-21T13:30:56.619Z,100375.00
2019-05-21T13:33:26.961Z,100373.00
2019-05-21T13:35:57.617Z,100374.00
2019-05-21T13:38:28.138Z,100372.00
2019-05-21T13:40:58.653Z,100380.00
2019-05-21T13:43:29.121Z,100371.00
2019-05-21T13:45:59.615Z,100380.00
2019-05-21T13:48:30.324Z,100392.00
2019-05-21T13:51:00.678Z,100385.00
2019-05-21T13:53:31.045Z,100379.00
2019-05-21T13:56:02.047Z,100382.00
2019-05-21T13:58:32.967Z,100375.00
2019-05-21T14:01:04.257Z,100370.00
2019-05-21T14:03:35.515Z,100375.00
2019-05-21T14:06:05.988Z,100370.00
2019-05-21T14:08:36.295Z,100375.00
2019-05-21T14:11:07.458Z,100371.00
2019-05-21T14:13:38.490Z,100360.00
2019-05-21T14:16:09.185Z,100374.00
2019-05-21T14:18:40.021Z,100371.00
2019-05-21T14:21:11.053Z,100374.00
2019-05-21T14:23:41.436Z,100373.00
2019-05-21T14:26:12.581Z,100376.00
2019-05-21T14:28:43.660Z,100366.00
2019-05-21T14:31:14.010Z,100365.00
2019-05-21T14:33:46.838Z,100369.00
2019-05-21T14:36:16.892Z,100371.00
2019-05-21T14:38:47.278Z,100371.00
2019-05-21T14:41:17.911Z,100375.00
2019-05-21T14:43:48.254Z,100370.00
2019-05-21T14:46:19.022Z,100368.00
2019-05-21T14:48:49.546Z,100367.00
2019-05-21T14:51:20.016Z,100367.00
2019-05-21T14:53:50.433Z,100367.00
2019-05-21T14:56:21.368Z,100355.00
2019-05-21T14:58:52.133Z,100376.00
2019-05-21T15:01:22.647Z,100373.00
2019-05-21T15:03:53.164Z,100367.00
2019-05-21T15:06:23.629Z,100373.00
2019-05-21T15:08:54.075Z,100387.00
2019-05-21T15:11:24.531Z,100375.00
2019-05-21T15:13:55.374Z,100373.00
2019-05-21T15:16:25.808Z,100376.00
2019-05-21T15:18:56.576Z,100381.00
2019-05-21T15:21:34.601Z,100380.00
2019-05-21T15:24:05.512Z,100381.00
2019-05-21T15:26:36.068Z,100374.00
2019-05-21T15:29:06.534Z,100390.00
2019-05-21T15:31:36.954Z,100387.00
2019-05-21T15:34:07.672Z,100379.00
2019-05-21T15:36:38.193Z,100377.00
2019-05-21T15:39:09.032Z,100388.00
2019-05-21T15:41:39.988Z,100388.00
2019-05-21T15:44:10.410Z,100390.00
2019-05-21T15:46:48.582Z,100383.00
2019-05-21T15:49:13.229Z,100385.00
2019-05-21T15:51:43.578Z,100381.00
2019-05-21T15:54:14.084Z,100384.00
2019-05-21T15:56:44.435Z,100389.00
2019-05-21T15:59:15.331Z,100394.00
2019-05-21T16:01:46.496Z,100397.00
2019-05-21T16:04:17.168Z,100391.00
2019-05-21T16:06:47.664Z,100390.00
2019-05-21T16:09:18.343Z,100403.00
2019-05-21T16:11:49.193Z,100402.00
2019-05-21T16:14:36.970Z,100410.00
2019-05-21T16:17:07.441Z,100414.00
2019-05-21T16:19:37.801Z,100400.00
2019-05-21T16:22:08.304Z,100408.00
2019-05-21T16:24:38.964Z,100398.00
2019-05-21T16:27:09.692Z,100405.00
2019-05-21T16:29:40.339Z,100400.00
2019-05-21T16:32:10.767Z,100404.00
2019-05-21T16:34:41.427Z,100396.00
2019-05-21T16:37:11.803Z,100398.00
2019-05-21T16:39:49.108Z,100397.00
2019-05-21T16:42:19.758Z,100403.00
2019-05-21T16:44:50.433Z,100397.00
2019-05-21T16:47:21.856Z,100393.00
2019-05-21T16:49:52.505Z,100402.00
2019-05-21T16:52:23.218Z,100392.00
2019-05-21T16:54:53.649Z,100414.00
2019-05-21T16:57:24.029Z,100414.00
2019-05-21T16:59:54.729Z,100409.00
2019-05-21T17:02:25.089Z,100415.00
2019-05-21T17:04:55.476Z,100409.00
2019-05-21T17:07:26.697Z,100421.00
2019-05-21T17:09:57.032Z,100414.00
2019-05-21T17:12:27.561Z,100423.00
2019-05-21T17:14:58.033Z,100421.00
2019-05-21T17:17:28.739Z,100418.00
2019-05-21T17:19:59.383Z,100426.00
2019-05-21T17:22:29.808Z,100433.00
2019-05-21T17:25:00.453Z,100429.00
2019-05-21T17:27:31.036Z,100436.00
2019-05-21T17:30:01.665Z,100436.00
2019-05-21T17:32:32.053Z,100436.00
2019-05-21T17:35:02.482Z,100444.00
2019-05-21T17:37:32.783Z,100448.00
2019-05-21T17:40:03.309Z,100449.00
2019-05-21T17:42:33.702Z,100453.00
2019-05-21T17:45:04.359Z,100451.00
2019-05-21T17:47:35.240Z,100462.00
2019-05-21T17:50:06.332Z,100452.00
2019-05-21T17:52:36.755Z,100458.00
2019-05-21T17:55:07.798Z,100465.00
2019-05-21T17:57:38.487Z,100464.00
2019-05-21T18:00:11.468Z,100462.00
2019-05-21T18:02:42.013Z,100469.00
2019-05-21T18:05:13.460Z,100472.00
2019-05-21T18:07:43.873Z,100474.00
2019-05-21T18:10:17.153Z,100475.00
2019-05-21T18:12:47.569Z,100476.00
2019-05-21T18:15:19.068Z,100479.00
2019-05-21T18:17:49.613Z,100490.00
2019-05-21T18:20:21.237Z,100491.00
2019-05-21T18:22:52.749Z,100502.00
2019-05-21T18:25:25.601Z,100506.00
2019-05-21T18:27:56.303Z,100505.00
2019-05-21T18:30:26.884Z,100514.00
2019-05-21T18:32:58.139Z,100515.00
2019-05-21T18:35:28.896Z,100510.00
2019-05-21T18:37:59.596Z,100508.00
2019-05-21T18:40:29.899Z,100523.00
2019-05-21T18:43:00.229Z,100527.00
2019-05-21T18:45:30.600Z,100526.00
2019-05-21T18:48:01.196Z,100522.00
2019-05-21T18:50:36.685Z,100530.00
2019-05-21T18:53:05.768Z,100534.00
2019-05-21T18:55:36.117Z,100531.00
2019-05-21T18:58:06.802Z,100536.00
2019-05-21T19:00:38.025Z,100545.00
2019-05-21T19:03:08.592Z,100548.00
2019-05-21T19:05:38.961Z,100553.00
2019-05-21T19:08:09.580Z,100553.00
2019-05-21T19:10:40.175Z,100545.00
2019-05-21T19:13:36.008Z,100550.00
2019-05-21T19:16:06.554Z,100559.00
2019-05-21T19:18:36.952Z,100567.00
2019-05-21T19:21:07.339Z,100566.00
2019-05-21T19:23:37.720Z,100570.00
2019-05-21T19:26:08.436Z,100567.00
2019-05-21T19:28:39.090Z,100576.00
2019-05-21T19:31:09.425Z,100591.00
2019-05-21T19:33:40.029Z,100595.00
2019-05-21T19:36:10.612Z,100589.00
2019-05-21T19:38:41.253Z,100586.00
2019-05-21T19:41:11.634Z,100591.00
2019-05-21T19:43:42.197Z,100602.00
2019-05-21T19:46:13.038Z,100601.00
2019-05-21T19:48:43.363Z,100594.00
2019-05-21T19:51:13.718Z,100598.00
2019-05-21T19:53:44.145Z,100604.00
2019-05-21T19:56:14.818Z,100601.00
2019-05-21T19:58:45.535Z,100609.00
2019-05-21T20:01:15.860Z,100615.00
2019-05-21T20:03:47.220Z,100604.00
2019-05-21T20:06:18.594Z,100616.00
2019-05-21T20:08:49.088Z,100617.00
2019-05-21T20:11:19.941Z,100615.00
2019-05-21T20:13:50.367Z,100619.00
2019-05-21T20:16:24.836Z,100618.00
2019-05-21T20:18:55.831Z,100628.00
2019-05-21T20:21:27.832Z,100630.00
2019-05-21T20:23:59.506Z,100640.00
2019-05-21T20:26:33.371Z,100638.00
2019-05-21T20:29:04.404Z,100637.00
2019-05-21T20:31:35.378Z,100646.00
2019-05-21T20:34:07.159Z,100633.00
2019-05-21T20:36:40.701Z,100634.00
2019-05-21T20:39:12.407Z,100650.00
2019-05-21T20:41:43.553Z,100646.00
2019-05-21T20:44:17.980Z,100646.00
2019-05-21T20:46:48.404Z,100645.00
2019-05-21T20:49:19.715Z,100644.00
2019-05-21T20:51:50.741Z,100638.00
2019-05-21T20:54:21.665Z,100646.00
2019-05-21T20:56:53.235Z,100646.00
2019-05-21T20:59:24.291Z,100648.00
2019-05-21T21:01:54.771Z,100646.00
2019-05-21T21:04:25.625Z,100642.00
2019-05-21T21:06:56.536Z,100640.00
2019-05-21T21:09:27.681Z,100645.00
2019-05-21T21:11:58.885Z,100640.00
2019-05-21T21:14:31.123Z,100637.00
2019-05-21T21:17:01.753Z,100633.00
2019-05-21T21:19:32.421Z,100634.00
2019-05-21T21:22:02.765Z,100638.00
2019-05-21T21:24:33.388Z,100643.00
2019-05-21T21:27:04.630Z,100647.00
2019-05-21T21:29:35.013Z,100649.00
2019-05-21T21:32:05.635Z,100650.00
2019-05-21T21:34:36.263Z,100647.00
2019-05-21T21:37:07.081Z,100645.00
2019-05-21T21:39:37.943Z,100646.00
2019-05-21T21:42:08.643Z,100658.00
2019-05-21T21:44:39.817Z,100655.00
2019-05-21T21:47:10.555Z,100651.00
2019-05-21T21:49:41.612Z,100650.00
2019-05-21T21:52:14.430Z,100663.00
2019-05-21T21:54:45.476Z,100658.00
2019-05-21T21:57:15.877Z,100658.00
2019-05-21T21:59:46.519Z,100663.00
2019-05-21T22:02:27.709Z,100655.00
2019-05-21T22:05:00.105Z,100649.00
2019-05-21T22:07:30.967Z,100654.00
2019-05-21T22:10:01.871Z,100651.00
2019-05-21T22:12:32.585Z,100654.00
2019-05-21T22:15:03.934Z,100654.00
2019-05-21T22:17:34.711Z,100664.00
2019-05-21T22:20:09.588Z,100655.00
2019-05-21T22:22:39.857Z,100661.00
2019-05-21T22:25:10.277Z,100661.00
2019-05-21T22:27:40.768Z,100653.00
2019-05-21T22:30:11.413Z,100662.00
2019-05-21T22:32:42.358Z,100663.00
2019-05-21T22:35:13.355Z,100662.00
2019-05-21T22:37:48.620Z,100660.00
2019-05-21T22:40:19.205Z,100656.00
2019-05-21T22:42:49.529Z,100664.00
2019-05-21T22:45:20.113Z,100665.00
2019-05-21T22:47:51.131Z,100661.00
2019-05-21T22:50:22.288Z,100666.00
2019-05-21T22:52:53.395Z,100662.00
2019-05-21T22:55:23.726Z,100666.00
2019-05-21T22:57:54.023Z,100661.00
2019-05-21T23:00:25.303Z,100664.00
2019-05-21T23:02:56.964Z,100668.00
2019-05-21T23:05:27.836Z,100667.00
2019-05-21T23:07:58.719Z,100666.00
2019-05-21T23:10:29.101Z,100669.00
2019-05-21T23:12:59.706Z,100670.00
2019-05-21T23:15:30.752Z,100678.00
2019-05-21T23:18:01.376Z,100675.00
2019-05-21T23:20:34.047Z,100678.00
2019-05-21T23:23:07.743Z,100674.00
2019-05-21T23:25:40.469Z,100681.00
2019-05-21T23:28:11.464Z,100679.00
2019-05-21T23:30:41.907Z,100682.00
2019-05-21T23:33:14.401Z,100681.00
2019-05-21T23:35:45.215Z,100680.00
2019-05-21T23:38:16.571Z,100682.00
2019-05-21T23:40:48.642Z,100680.00
2019-05-21T23:43:19.515Z,100668.00
2019-05-21T23:45:49.854Z,100670.00
2019-05-21T23:48:22.552Z,100672.00
2019-05-21T23:50:53.706Z,100667.00
2019-05-21T23:53:24.049Z,100669.00
2019-05-21T23:55:54.515Z,100677.00
2019-05-21T23:58:25.039Z,100672.00
